createdAt,value
2022-12-27T00:02:26.836Z,77.50
2022-12-27T00:04:55.049Z,77.60
2022-12-27T00:07:22.239Z,77.50
2022-12-27T00:09:49.166Z,77.50
2022-12-27T00:12:16.007Z,77.70
2022-12-27T00:14:42.747Z,77.70
2022-12-27T00:17:10.344Z,77.70
2022-12-27T00:19:37.116Z,77.70
2022-12-27T00:22:05.304Z,77.70
2022-12-27T00:24:32.289Z,77.70
2022-12-27T00:27:01.914Z,77.80
2022-12-27T00:29:29.193Z,77.60
2022-12-27T00:31:56.320Z,77.70
2022-12-27T00:34:23.434Z,77.70
2022-12-27T00:36:51.097Z,77.70
2022-12-27T00:39:17.967Z,77.90
2022-12-27T00:41:47.131Z,78.10
2022-12-27T00:44:14.588Z,78.20
2022-12-27T00:46:41.539Z,78.00
2022-12-27T00:49:08.314Z,78.10
2022-12-27T00:51:35.075Z,78.10
2022-12-27T00:54:01.957Z,78.50
2022-12-27T00:56:30.717Z,78.80
2022-12-27T00:59:00.376Z,79.10
2022-12-27T01:01:29.516Z,79.30
2022-12-27T01:03:57.772Z,79.40
2022-12-27T01:06:29.149Z,79.60
2022-12-27T01:08:57.223Z,79.80
2022-12-27T01:11:26.213Z,80.00
2022-12-27T01:13:55.670Z,80.10
2022-12-27T01:16:24.025Z,80.40
2022-12-27T01:18:51.143Z,80.40
2022-12-27T01:21:20.314Z,80.50
2022-12-27T01:23:47.849Z,80.40
2022-12-27T01:26:18.836Z,80.40
2022-12-27T01:28:46.801Z,80.40
2022-12-27T01:31:21.670Z,80.40
2022-12-27T01:33:49.465Z,80.40
2022-12-27T01:36:21.915Z,81.00
2022-12-27T01:38:49.901Z,80.90
2022-12-27T01:42:08.802Z,81.00
2022-12-27T01:44:44.003Z,81.10
2022-12-27T01:47:40.717Z,81.00
2022-12-27T01:50:16.488Z,81.10
2022-12-27T01:52:51.873Z,81.20
2022-12-27T01:55:34.946Z,81.00
2022-12-27T01:58:17.842Z,80.70
2022-12-27T02:00:46.711Z,80.90
2022-12-27T02:03:22.258Z,80.90
2022-12-27T02:05:50.774Z,80.80
2022-12-27T02:08:43.767Z,81.00
2022-12-27T02:11:13.046Z,81.00
2022-12-27T02:13:44.985Z,81.00
2022-12-27T02:16:19.248Z,81.30
2022-12-27T02:18:46.759Z,81.30
2022-12-27T02:21:31.604Z,81.20
2022-12-27T02:24:07.804Z,81.10
2022-12-27T02:27:12.634Z,81.10
2022-12-27T02:29:59.991Z,81.20
2022-12-27T02:32:37.183Z,81.20
2022-12-27T02:35:13.361Z,81.10
2022-12-27T02:37:55.773Z,81.30
2022-12-27T02:40:43.751Z,81.40
2022-12-27T02:43:29.445Z,81.40
2022-12-27T02:46:22.834Z,81.60
2022-12-27T02:49:12.777Z,81.60
2022-12-27T02:52:07.330Z,81.50
2022-12-27T02:55:02.924Z,81.40
2022-12-27T02:57:51.832Z,81.30
2022-12-27T03:00:43.385Z,81.20
2022-12-27T03:03:23.939Z,81.20
2022-12-27T03:06:31.436Z,81.20
2022-12-27T03:09:36.549Z,81.20
2022-12-27T03:12:31.822Z,81.30
2022-12-27T03:15:30.408Z,81.30
2022-12-27T03:18:09.384Z,81.20
2022-12-27T03:20:57.286Z,81.20
2022-12-27T03:23:44.930Z,81.10
2022-12-27T03:26:15.323Z,81.10
2022-12-27T03:29:03.697Z,81.30
2022-12-27T03:31:53.101Z,81.30
2022-12-27T03:34:35.623Z,81.20
2022-12-27T03:37:32.040Z,81.10
2022-12-27T03:40:40.366Z,81.30
2022-12-27T03:43:14.883Z,81.20
2022-12-27T03:46:18.507Z,81.20
2022-12-27T03:48:51.159Z,81.20
2022-12-27T03:51:21.904Z,81.30
2022-12-27T03:53:53.492Z,81.30
2022-12-27T03:56:21.133Z,81.30
2022-12-27T03:58:48.066Z,81.40
2022-12-27T04:01:15.075Z,81.30
2022-12-27T04:03:42.115Z,81.30
2022-12-27T04:06:09.208Z,81.20
2022-12-27T04:08:54.808Z,81.30
2022-12-27T04:11:40.108Z,81.20
2022-12-27T04:14:25.406Z,81.20
2022-12-27T04:17:10.899Z,81.10
2022-12-27T04:19:56.349Z,81.00
2022-12-27T04:22:41.596Z,81.00
2022-12-27T04:25:27.640Z,81.00
2022-12-27T04:28:14.146Z,80.80
2022-12-27T04:30:59.738Z,80.90
2022-12-27T04:33:45.149Z,81.10
2022-12-27T04:36:11.945Z,81.00
2022-12-27T04:38:38.736Z,80.90
2022-12-27T04:41:24.145Z,81.00
2022-12-27T04:44:09.486Z,81.00
2022-12-27T04:46:54.937Z,81.00
2022-12-27T04:49:44.350Z,81.20
2022-12-27T04:52:35.868Z,81.20
2022-12-27T04:55:11.541Z,81.20
2022-12-27T04:57:38.350Z,81.40
2022-12-27T05:00:24.561Z,81.50
2022-12-27T05:02:51.914Z,81.70
2022-12-27T05:05:19.271Z,81.70
2022-12-27T05:08:04.577Z,81.60
2022-12-27T05:10:50.169Z,81.50
2022-12-27T05:13:35.634Z,81.50
2022-12-27T05:16:02.433Z,81.60
2022-12-27T05:18:29.238Z,81.70
2022-12-27T05:21:01.283Z,81.60
2022-12-27T05:23:46.728Z,81.70
2022-12-27T05:26:21.873Z,81.80
2022-12-27T05:28:49.203Z,81.80
2022-12-27T05:31:16.043Z,81.90
2022-12-27T05:33:43.020Z,81.90
2022-12-27T05:36:10.318Z,81.90
2022-12-27T05:38:37.396Z,81.80
2022-12-27T05:41:05.008Z,81.80
2022-12-27T05:43:32.698Z,81.80
2022-12-27T05:46:07.627Z,81.90
2022-12-27T05:48:35.434Z,81.60
2022-12-27T05:51:21.833Z,81.70
2022-12-27T05:53:49.133Z,81.60
2022-12-27T05:56:18.308Z,81.80
2022-12-27T05:58:45.718Z,81.90
2022-12-27T06:01:15.647Z,82.00
2022-12-27T06:03:42.629Z,82.00
2022-12-27T06:06:09.847Z,82.00
2022-12-27T06:08:37.609Z,82.00
2022-12-27T06:11:11.132Z,82.00
2022-12-27T06:13:39.546Z,81.90
2022-12-27T06:16:08.831Z,81.90
2022-12-27T06:18:37.665Z,82.00
2022-12-27T06:21:10.876Z,81.90
2022-12-27T06:23:40.112Z,81.90
2022-12-27T06:26:13.399Z,81.90
2022-12-27T06:28:40.243Z,82.00
2022-12-27T06:31:10.366Z,81.90
2022-12-27T06:33:37.204Z,81.90
2022-12-27T06:36:12.535Z,81.90
2022-12-27T06:38:40.120Z,82.00
2022-12-27T06:41:09.587Z,81.90
2022-12-27T06:43:36.399Z,82.00
2022-12-27T06:46:06.081Z,82.10
2022-12-27T06:48:33.109Z,82.00
2022-12-27T06:51:03.400Z,81.90
2022-12-27T06:53:30.266Z,82.00
2022-12-27T06:55:57.120Z,82.00
2022-12-27T06:58:23.969Z,82.00
2022-12-27T07:00:51.368Z,82.10
2022-12-27T07:03:18.314Z,82.10
2022-12-27T07:05:45.348Z,82.20
2022-12-27T07:08:12.124Z,82.20
2022-12-27T07:10:38.944Z,82.30
2022-12-27T07:13:05.790Z,82.30
2022-12-27T07:15:32.967Z,82.30
2022-12-27T07:18:00.133Z,82.30
2022-12-27T07:20:26.981Z,82.30
2022-12-27T07:22:53.827Z,82.30
2022-12-27T07:25:20.933Z,82.30
2022-12-27T07:27:47.771Z,82.30
2022-12-27T07:30:15.317Z,82.20
2022-12-27T07:32:42.402Z,82.20
2022-12-27T07:35:09.581Z,82.30
2022-12-27T07:37:36.929Z,82.20
2022-12-27T07:40:04.109Z,82.30
2022-12-27T07:42:30.991Z,82.30
2022-12-27T07:44:57.811Z,82.20
2022-12-27T07:47:24.606Z,82.20
2022-12-27T07:49:51.503Z,82.30
2022-12-27T07:52:18.292Z,82.40
2022-12-27T07:54:45.072Z,82.50
2022-12-27T07:57:11.968Z,82.70
2022-12-27T07:59:38.809Z,82.80
2022-12-27T08:02:06.420Z,82.90
2022-12-27T08:04:37.192Z,82.80
2022-12-27T08:07:17.867Z,82.80
2022-12-27T08:09:47.095Z,82.90
2022-12-27T08:12:14.847Z,82.90
2022-12-27T08:14:42.178Z,82.90
2022-12-27T08:17:21.064Z,83.00
2022-12-27T08:19:48.170Z,82.90
2022-12-27T08:22:15.367Z,82.70
2022-12-27T08:24:42.307Z,82.50
2022-12-27T08:27:09.432Z,82.20
2022-12-27T08:29:36.653Z,82.00
2022-12-27T08:32:04.437Z,81.90
2022-12-27T08:34:31.635Z,81.90
2022-12-27T08:37:00.303Z,82.00
2022-12-27T08:39:27.810Z,82.10
2022-12-27T08:41:54.546Z,82.20
2022-12-27T08:44:21.733Z,82.30
2022-12-27T08:46:48.563Z,82.50
2022-12-27T08:49:15.496Z,82.60
2022-12-27T08:51:42.348Z,82.50
2022-12-27T08:54:09.740Z,82.80
2022-12-27T08:56:36.831Z,83.20
2022-12-27T08:59:04.025Z,83.30
2022-12-27T09:01:31.041Z,82.70
2022-12-27T09:03:57.964Z,82.60
2022-12-27T09:06:25.650Z,82.10
2022-12-27T09:08:54.621Z,81.80
2022-12-27T09:11:30.841Z,81.60
2022-12-27T09:14:03.514Z,81.70
2022-12-27T09:16:31.558Z,81.70
2022-12-27T09:18:59.713Z,81.50
2022-12-27T09:21:29.415Z,81.30
2022-12-27T09:23:56.236Z,81.20
2022-12-27T09:26:28.918Z,81.40
2022-12-27T09:28:57.108Z,81.30
2022-12-27T09:31:24.869Z,80.90
2022-12-27T09:33:52.751Z,80.60
2022-12-27T09:36:23.344Z,80.70
2022-12-27T09:38:52.780Z,81.00
2022-12-27T09:42:41.260Z,80.90
2022-12-27T09:44:46.439Z,81.00
2022-12-27T09:47:39.365Z,80.90
2022-12-27T09:50:18.930Z,80.80
2022-12-27T09:53:10.668Z,81.20
2022-12-27T09:55:49.884Z,81.80
2022-12-27T09:58:48.332Z,81.60
2022-12-27T10:01:31.421Z,82.10
2022-12-27T10:03:59.056Z,80.30
2022-12-27T10:06:44.384Z,78.80
2022-12-27T10:09:29.376Z,77.70
2022-12-27T10:11:56.193Z,78.30
2022-12-27T10:14:38.213Z,79.70
2022-12-27T10:17:13.945Z,79.40
2022-12-27T10:19:49.598Z,76.80
2022-12-27T10:22:21.310Z,75.90
2022-12-27T10:24:52.333Z,75.60
2022-12-27T10:27:25.447Z,76.20
2022-12-27T10:29:55.162Z,76.90
2022-12-27T10:32:22.473Z,77.10
2022-12-27T10:34:56.275Z,77.80
2022-12-27T10:37:23.169Z,77.90
2022-12-27T10:39:50.010Z,79.50
2022-12-27T10:42:41.926Z,83.60
2022-12-27T10:45:39.373Z,84.90
2022-12-27T10:48:17.057Z,83.90
2022-12-27T10:50:48.876Z,78.20
2022-12-27T10:53:34.168Z,73.00
2022-12-27T10:56:11.477Z,71.60
2022-12-27T10:58:42.742Z,71.20
2022-12-27T11:01:36.355Z,73.00
2022-12-27T11:04:19.786Z,72.20
2022-12-27T11:07:04.509Z,70.70
2022-12-27T11:09:50.145Z,71.80
2022-12-27T11:12:32.990Z,72.30
2022-12-27T11:15:13.707Z,71.10
2022-12-27T11:18:09.644Z,70.50
2022-12-27T11:20:57.856Z,68.70
2022-12-27T11:23:40.719Z,68.20
2022-12-27T11:26:07.802Z,67.50
2022-12-27T11:28:41.916Z,66.00
2022-12-27T11:31:11.825Z,65.60
2022-12-27T11:33:51.082Z,63.30
2022-12-27T11:36:34.492Z,62.70
2022-12-27T11:39:02.239Z,63.80
2022-12-27T11:41:37.346Z,64.40
2022-12-27T11:44:19.161Z,63.50
2022-12-27T11:46:59.260Z,63.20
2022-12-27T11:49:35.917Z,62.40
2022-12-27T11:52:20.133Z,62.80
2022-12-27T11:55:16.211Z,60.40
2022-12-27T11:58:07.157Z,60.20
2022-12-27T12:01:05.657Z,58.60
2022-12-27T12:03:55.780Z,58.30
2022-12-27T12:06:49.950Z,59.30
2022-12-27T12:10:05.871Z,60.60
2022-12-27T12:13:14.817Z,61.50
2022-12-27T12:16:16.970Z,62.20
2022-12-27T12:19:23.364Z,63.60
2022-12-27T12:22:24.529Z,64.50
2022-12-27T12:25:18.669Z,65.70
2022-12-27T12:28:55.853Z,66.10
2022-12-27T12:31:15.687Z,66.80
2022-12-27T12:34:01.497Z,67.40
2022-12-27T12:36:55.130Z,68.00
2022-12-27T12:39:49.619Z,68.70
2022-12-27T12:42:22.177Z,68.80
2022-12-27T12:44:59.416Z,69.10
2022-12-27T12:47:50.324Z,69.20
2022-12-27T12:50:48.886Z,69.70
2022-12-27T12:53:28.645Z,69.70
2022-12-27T12:56:33.842Z,70.00
2022-12-27T12:59:19.565Z,71.20
2022-12-27T13:01:56.960Z,71.50
2022-12-27T13:04:35.993Z,68.90
2022-12-27T13:07:17.233Z,68.00
2022-12-27T13:09:59.861Z,68.10
2022-12-27T13:12:52.232Z,68.30
2022-12-27T13:15:38.372Z,68.60
2022-12-27T13:18:26.641Z,68.80
2022-12-27T13:21:19.578Z,69.00
2022-12-27T13:24:17.537Z,69.20
2022-12-27T13:27:20.694Z,69.50
2022-12-27T13:30:17.142Z,69.80
2022-12-27T13:33:08.966Z,70.30
2022-12-27T13:36:03.353Z,70.60
2022-12-27T13:39:04.415Z,71.00
2022-12-27T13:41:58.782Z,71.20
2022-12-27T13:44:56.259Z,71.40
2022-12-27T13:47:42.155Z,71.70
2022-12-27T13:50:27.578Z,71.70
2022-12-27T13:53:34.422Z,71.80
2022-12-27T13:56:52.939Z,72.20
2022-12-27T13:59:30.373Z,72.40
2022-12-27T14:02:31.785Z,72.50
2022-12-27T14:05:11.365Z,72.80
2022-12-27T14:07:40.972Z,72.90
2022-12-27T14:10:42.204Z,72.90
2022-12-27T14:13:12.740Z,73.20
2022-12-27T14:15:58.594Z,73.10
2022-12-27T14:18:40.565Z,73.30
2022-12-27T14:21:41.356Z,73.40
2022-12-27T14:24:17.954Z,73.40
2022-12-27T14:27:01.389Z,73.40
2022-12-27T14:29:50.072Z,73.60
2022-12-27T14:32:53.231Z,73.70
2022-12-27T14:35:44.767Z,73.70
2022-12-27T14:39:06.793Z,73.70
2022-12-27T14:42:01.389Z,73.90
2022-12-27T14:44:47.022Z,74.00
2022-12-27T14:47:34.132Z,74.00
2022-12-27T14:50:19.424Z,73.90
2022-12-27T14:53:04.902Z,73.90
2022-12-27T14:55:53.010Z,74.00
2022-12-27T14:58:51.703Z,74.10
2022-12-27T15:01:40.029Z,74.10
2022-12-27T15:04:40.836Z,74.10
2022-12-27T15:07:33.760Z,74.00
2022-12-27T15:10:17.840Z,74.00
2022-12-27T15:13:15.220Z,74.20
2022-12-27T15:15:57.081Z,74.30
2022-12-27T15:18:36.832Z,74.50
2022-12-27T15:21:17.220Z,74.70
2022-12-27T15:23:50.698Z,74.90
2022-12-27T15:26:29.926Z,75.20
2022-12-27T15:29:02.877Z,75.20
2022-12-27T15:31:38.725Z,75.20
2022-12-27T15:34:39.944Z,75.30
2022-12-27T15:37:26.901Z,75.40
2022-12-27T15:39:54.287Z,75.50
2022-12-27T15:42:44.846Z,75.50
2022-12-27T15:45:38.507Z,75.60
2022-12-27T15:48:34.954Z,75.80
2022-12-27T15:51:25.390Z,75.90
2022-12-27T15:54:17.152Z,75.90
2022-12-27T15:56:50.379Z,76.00
2022-12-27T15:59:41.990Z,76.10
2022-12-27T16:02:23.527Z,76.20
2022-12-27T16:04:51.989Z,76.30
2022-12-27T16:07:42.665Z,76.20
2022-12-27T16:10:31.320Z,76.20
2022-12-27T16:13:13.150Z,76.20
2022-12-27T16:15:52.266Z,76.20
2022-12-27T16:18:19.314Z,76.20
2022-12-27T16:21:19.198Z,76.20
2022-12-27T16:23:46.010Z,76.30
2022-12-27T16:26:15.789Z,76.20
2022-12-27T16:29:02.818Z,76.10
2022-12-27T16:31:37.918Z,76.10
2022-12-27T16:34:21.236Z,76.10
2022-12-27T16:36:49.850Z,76.10
2022-12-27T16:39:28.491Z,76.10
2022-12-27T16:41:55.451Z,76.20
2022-12-27T16:44:25.144Z,76.30
2022-12-27T16:47:11.897Z,76.30
2022-12-27T16:49:47.608Z,76.30
2022-12-27T16:52:17.423Z,76.20
2022-12-27T16:54:57.086Z,76.20
2022-12-27T16:57:23.788Z,76.10
2022-12-27T16:59:57.762Z,76.00
2022-12-27T17:02:46.537Z,76.10
2022-12-27T17:05:16.560Z,76.10
2022-12-27T17:07:55.912Z,76.00
2022-12-27T17:10:30.149Z,76.00
2022-12-27T17:13:12.306Z,76.10
2022-12-27T17:16:04.402Z,76.10
2022-12-27T17:18:36.351Z,76.10
2022-12-27T17:21:13.717Z,76.10
2022-12-27T17:23:47.778Z,76.10
2022-12-27T17:26:42.565Z,76.20
2022-12-27T17:29:46.067Z,76.30
2022-12-27T17:32:41.027Z,76.30
2022-12-27T17:35:10.776Z,76.20
2022-12-27T17:37:58.894Z,76.30
2022-12-27T17:40:50.370Z,76.20
2022-12-27T17:43:44.640Z,76.20
2022-12-27T17:46:42.316Z,76.20
2022-12-27T17:49:11.579Z,76.20
2022-12-27T17:52:02.056Z,76.20
2022-12-27T17:54:48.099Z,76.30
2022-12-27T17:57:37.010Z,76.30
2022-12-27T18:00:06.634Z,76.30
2022-12-27T18:02:40.232Z,76.30
2022-12-27T18:05:13.501Z,76.40
2022-12-27T18:07:42.103Z,76.40
2022-12-27T18:10:25.312Z,76.30
2022-12-27T18:12:57.763Z,76.40
2022-12-27T18:15:26.925Z,76.40
2022-12-27T18:18:00.325Z,76.40
2022-12-27T18:20:27.378Z,76.30
2022-12-27T18:23:03.272Z,76.30
2022-12-27T18:25:37.928Z,76.30
2022-12-27T18:28:32.546Z,76.20
2022-12-27T18:31:14.686Z,76.20
2022-12-27T18:33:44.293Z,76.20
2022-12-27T18:36:16.118Z,76.20
2022-12-27T18:38:47.032Z,76.20
2022-12-27T18:41:19.710Z,76.20
2022-12-27T18:43:50.020Z,76.10
2022-12-27T18:46:26.200Z,76.00
2022-12-27T18:48:53.455Z,76.00
2022-12-27T18:51:20.551Z,75.90
2022-12-27T18:53:47.557Z,75.90
2022-12-27T18:56:14.566Z,75.90
2022-12-27T18:58:58.317Z,75.80
2022-12-27T19:01:38.425Z,75.80
2022-12-27T19:04:14.646Z,75.80
2022-12-27T19:06:54.336Z,75.80
2022-12-27T19:09:24.647Z,75.90
2022-12-27T19:11:58.360Z,75.90
2022-12-27T19:14:29.657Z,76.00
2022-12-27T19:17:01.085Z,76.10
2022-12-27T19:19:31.576Z,76.20
2022-12-27T19:21:58.877Z,76.20
2022-12-27T19:24:29.366Z,76.30
2022-12-27T19:27:00.702Z,76.40
2022-12-27T19:29:32.001Z,76.40
2022-12-27T19:32:07.389Z,76.60
2022-12-27T19:34:46.616Z,76.60
2022-12-27T19:37:13.590Z,76.70
2022-12-27T19:39:41.536Z,76.70
2022-12-27T19:42:20.359Z,76.70
2022-12-27T19:44:47.516Z,76.60
2022-12-27T19:47:14.468Z,76.60
2022-12-27T19:49:43.734Z,76.60
2022-12-27T19:52:17.620Z,76.50
2022-12-27T19:54:44.907Z,76.50
2022-12-27T19:57:12.623Z,76.50
2022-12-27T19:59:39.475Z,76.40
2022-12-27T20:02:06.568Z,76.30
2022-12-27T20:04:33.536Z,76.00
2022-12-27T20:07:01.207Z,76.00
2022-12-27T20:09:28.205Z,75.90
2022-12-27T20:11:55.064Z,75.80
2022-12-27T20:14:21.955Z,75.80
2022-12-27T20:16:48.813Z,75.60
2022-12-27T20:19:18.051Z,75.50
2022-12-27T20:21:45.117Z,75.60
2022-12-27T20:24:13.143Z,75.30
2022-12-27T20:26:40.616Z,75.30
2022-12-27T20:29:07.855Z,75.20
2022-12-27T20:31:43.879Z,75.10
2022-12-27T20:34:12.539Z,75.00
2022-12-27T20:36:39.646Z,74.80
2022-12-27T20:39:07.317Z,74.80
2022-12-27T20:41:34.282Z,74.70
2022-12-27T20:44:01.416Z,74.60
2022-12-27T20:46:28.696Z,74.60
2022-12-27T20:48:56.483Z,74.30
2022-12-27T20:51:25.765Z,74.30
2022-12-27T20:53:59.325Z,74.20
2022-12-27T20:56:26.355Z,74.10
2022-12-27T20:58:53.454Z,74.00
2022-12-27T21:01:22.807Z,73.90
2022-12-27T21:03:50.026Z,73.80
2022-12-27T21:06:22.758Z,73.70
2022-12-27T21:08:56.344Z,73.80
2022-12-27T21:11:30.327Z,73.70
2022-12-27T21:13:57.552Z,73.70
2022-12-27T21:16:26.901Z,73.70
2022-12-27T21:18:54.606Z,73.70
2022-12-27T21:21:27.584Z,73.40
2022-12-27T21:23:56.886Z,73.70
2022-12-27T21:26:26.752Z,73.60
2022-12-27T21:28:53.903Z,73.70
2022-12-27T21:31:21.019Z,73.60
2022-12-27T21:33:48.361Z,73.50
2022-12-27T21:36:18.155Z,73.60
2022-12-27T21:38:45.809Z,73.60
2022-12-27T21:41:27.968Z,73.60
2022-12-27T21:43:54.972Z,73.50
2022-12-27T21:46:25.027Z,73.50
2022-12-27T21:48:57.375Z,73.50
2022-12-27T21:51:25.459Z,73.50
2022-12-27T21:53:52.631Z,73.40
2022-12-27T21:56:19.721Z,73.60
2022-12-27T21:58:47.114Z,73.60
2022-12-27T22:01:17.110Z,73.70
2022-12-27T22:03:46.403Z,73.70
2022-12-27T22:06:15.876Z,73.80
2022-12-27T22:08:44.750Z,73.80
2022-12-27T22:11:12.037Z,74.00
2022-12-27T22:13:39.491Z,74.00
2022-12-27T22:16:11.472Z,74.30
2022-12-27T22:18:41.435Z,74.40
2022-12-27T22:21:10.226Z,74.60
2022-12-27T22:23:39.484Z,74.90
2022-12-27T22:26:11.773Z,75.30
2022-12-27T22:28:39.281Z,75.40
2022-12-27T22:31:07.638Z,75.70
2022-12-27T22:33:36.175Z,76.20
2022-12-27T22:36:05.594Z,76.80
2022-12-27T22:38:33.359Z,77.40
2022-12-27T22:41:11.281Z,77.90
2022-12-27T22:43:38.558Z,78.40
2022-12-27T22:46:07.728Z,79.00
2022-12-27T22:48:34.744Z,79.20
2022-12-27T22:51:13.483Z,79.50
2022-12-27T22:53:40.367Z,79.60
2022-12-27T22:56:25.246Z,79.90
2022-12-27T22:58:52.411Z,80.10
2022-12-27T23:01:27.916Z,80.40
2022-12-27T23:04:06.145Z,80.60
2022-12-27T23:06:34.605Z,80.90
2022-12-27T23:09:02.093Z,80.80
2022-12-27T23:11:31.681Z,81.00
2022-12-27T23:14:04.723Z,81.10
2022-12-27T23:16:39.642Z,81.10
2022-12-27T23:19:07.286Z,81.20
2022-12-27T23:21:34.235Z,81.30
2022-12-27T23:24:01.278Z,81.20
2022-12-27T23:26:28.516Z,81.30
2022-12-27T23:28:55.497Z,81.50
2022-12-27T23:31:23.999Z,81.50
2022-12-27T23:33:51.721Z,81.70
2022-12-27T23:36:19.189Z,81.80
2022-12-27T23:38:46.050Z,81.80
2022-12-27T23:41:18.644Z,81.80
2022-12-27T23:43:55.010Z,81.90
2022-12-27T23:46:24.262Z,82.00
2022-12-27T23:48:51.724Z,82.20
2022-12-27T23:51:19.490Z,82.10
2022-12-27T23:53:46.483Z,82.30
2022-12-27T23:56:16.164Z,82.40
2022-12-27T23:58:43.543Z,82.50
